createdAt,value
2022-09-26T00:01:22.994Z,5.55
2022-09-26T00:03:52.777Z,6.57
2022-09-26T00:06:20.738Z,5.28
2022-09-26T00:08:48.608Z,6.93
2022-09-26T00:11:18.666Z,6.03
2022-09-26T00:13:45.257Z,5.28
2022-09-26T00:16:13.387Z,6.55
2022-09-26T00:18:40.344Z,7.53
2022-09-26T00:21:09.698Z,6.40
2022-09-26T00:23:36.703Z,6.82
2022-09-26T00:26:04.147Z,4.50
2022-09-26T00:28:30.815Z,6.00
2022-09-26T00:30:57.820Z,4.63
2022-09-26T00:33:24.322Z,5.60
2022-09-26T00:35:55.062Z,8.93
2022-09-26T00:38:22.383Z,10.68
2022-09-26T00:40:49.846Z,4.88
2022-09-26T00:43:33.681Z,9.27
2022-09-26T00:46:34.739Z,7.70
2022-09-26T00:49:20.178Z,11.68
2022-09-26T00:51:52.871Z,8.65
2022-09-26T00:54:20.050Z,6.72
2022-09-26T00:56:50.622Z,9.27
2022-09-26T00:59:27.644Z,7.80
2022-09-26T01:01:57.977Z,11.15
2022-09-26T01:04:28.281Z,10.02
2022-09-26T01:07:01.372Z,5.15
2022-09-26T01:09:29.185Z,6.53
2022-09-26T01:11:56.780Z,8.82
2022-09-26T01:14:24.794Z,8.00
2022-09-26T01:16:51.750Z,8.32
2022-09-26T01:19:49.339Z,6.97
2022-09-26T01:22:32.380Z,7.05
2022-09-26T01:25:43.539Z,5.82
2022-09-26T01:28:25.143Z,5.90
2022-09-26T01:31:12.094Z,8.48
2022-09-26T01:34:09.587Z,7.43
2022-09-26T01:36:50.625Z,8.65
2022-09-26T01:39:52.420Z,5.75
2022-09-26T01:42:45.663Z,5.68
2022-09-26T01:45:21.888Z,5.15
2022-09-26T01:48:16.868Z,7.05
2022-09-26T01:51:10.826Z,5.68
2022-09-26T01:53:46.788Z,6.75
2022-09-26T01:56:21.184Z,7.75
2022-09-26T01:58:57.295Z,5.57
2022-09-26T02:01:27.503Z,8.00
2022-09-26T02:04:01.151Z,9.30
2022-09-26T02:06:34.243Z,7.07
2022-09-26T02:09:12.131Z,6.90
2022-09-26T02:11:43.831Z,5.97
2022-09-26T02:14:16.206Z,8.57
2022-09-26T02:16:51.011Z,6.20
2022-09-26T02:19:59.923Z,7.45
2022-09-26T02:22:29.547Z,6.00
2022-09-26T02:24:55.989Z,9.20
2022-09-26T02:27:22.642Z,13.52
2022-09-26T02:29:49.019Z,6.43
2022-09-26T02:32:20.529Z,6.97
2022-09-26T02:34:48.471Z,5.45
2022-09-26T02:37:16.372Z,12.32
2022-09-26T02:39:45.457Z,8.70
2022-09-26T02:42:25.304Z,7.85
2022-09-26T02:45:29.638Z,6.82
2022-09-26T02:48:11.935Z,11.80
2022-09-26T02:50:53.503Z,8.23
2022-09-26T02:53:42.088Z,6.72
2022-09-26T02:56:33.328Z,7.43
2022-09-26T02:59:22.407Z,6.57
2022-09-26T03:02:05.899Z,7.60
2022-09-26T03:04:50.603Z,6.03
2022-09-26T03:07:27.920Z,6.93
2022-09-26T03:09:57.255Z,9.70
2022-09-26T03:12:26.283Z,5.55
2022-09-26T03:14:57.997Z,10.75
2022-09-26T03:17:26.924Z,8.55
2022-09-26T03:20:05.318Z,7.72
2022-09-26T03:22:32.108Z,6.60
2022-09-26T03:24:59.798Z,8.85
2022-09-26T03:27:27.147Z,7.90
2022-09-26T03:29:54.081Z,7.28
2022-09-26T03:32:20.489Z,11.55
2022-09-26T03:34:47.017Z,9.27
2022-09-26T03:37:13.687Z,6.05
2022-09-26T03:39:40.065Z,7.50
2022-09-26T03:42:06.640Z,8.60
2022-09-26T03:44:33.013Z,10.35
2022-09-26T03:46:59.629Z,10.93
2022-09-26T03:49:26.099Z,9.68
2022-09-26T03:51:52.489Z,6.65
2022-09-26T03:54:19.006Z,8.32
2022-09-26T03:56:45.457Z,8.65
2022-09-26T03:59:12.197Z,16.48
2022-09-26T04:01:38.870Z,10.63
2022-09-26T04:04:05.399Z,9.23
2022-09-26T04:06:31.738Z,6.97
2022-09-26T04:08:58.139Z,9.50
2022-09-26T04:11:24.921Z,6.70
2022-09-26T04:13:53.994Z,8.57
2022-09-26T04:16:22.650Z,9.02
2022-09-26T04:18:49.778Z,8.00
2022-09-26T04:21:17.416Z,8.98
2022-09-26T04:23:44.488Z,9.80
2022-09-26T04:26:17.482Z,8.18
2022-09-26T04:28:50.919Z,10.13
2022-09-26T04:31:17.957Z,10.13
2022-09-26T04:33:45.066Z,9.88
2022-09-26T04:36:13.629Z,10.82
2022-09-26T04:38:41.080Z,9.18
2022-09-26T04:41:10.638Z,7.97
2022-09-26T04:43:37.683Z,9.32
2022-09-26T04:46:09.591Z,11.57
2022-09-26T04:48:36.489Z,13.77
2022-09-26T04:51:07.948Z,9.05
2022-09-26T04:53:35.485Z,13.95
2022-09-26T04:56:02.597Z,9.00
2022-09-26T04:58:29.467Z,11.20
2022-09-26T05:00:55.882Z,8.25
2022-09-26T05:03:22.609Z,12.27
2022-09-26T05:05:49.989Z,13.07
2022-09-26T05:08:17.234Z,8.02
2022-09-26T05:10:44.100Z,8.57
2022-09-26T05:13:10.811Z,9.75
2022-09-26T05:15:39.747Z,12.98
2022-09-26T05:18:08.385Z,10.23
2022-09-26T05:20:35.400Z,14.75
2022-09-26T05:23:02.430Z,10.52
2022-09-26T05:25:53.668Z,9.45
2022-09-26T05:28:20.197Z,10.13
2022-09-26T05:30:46.645Z,14.45
2022-09-26T05:33:13.345Z,12.77
2022-09-26T05:35:40.312Z,9.38
2022-09-26T05:38:06.948Z,13.05
2022-09-26T05:40:52.081Z,10.70
2022-09-26T05:43:18.562Z,12.82
2022-09-26T05:45:50.742Z,13.60
2022-09-26T05:48:17.830Z,9.95
2022-09-26T05:50:44.747Z,9.75
2022-09-26T05:53:11.196Z,11.35
2022-09-26T05:55:37.939Z,13.60
2022-09-26T05:58:06.025Z,11.40
2022-09-26T06:00:32.438Z,9.48
2022-09-26T06:03:02.801Z,11.23
2022-09-26T06:05:31.485Z,14.20
2022-09-26T06:08:00.023Z,10.90
2022-09-26T06:10:26.407Z,13.75
2022-09-26T06:12:52.859Z,14.38
2022-09-26T06:15:19.576Z,13.30
2022-09-26T06:17:48.127Z,12.80
2022-09-26T06:20:14.627Z,11.68
2022-09-26T06:22:42.351Z,14.57
2022-09-26T06:25:10.273Z,14.63
2022-09-26T06:27:38.749Z,11.80
2022-09-26T06:30:10.510Z,13.15
2022-09-26T06:32:39.150Z,11.27
2022-09-26T06:35:08.744Z,15.02
2022-09-26T06:37:35.144Z,12.60
2022-09-26T06:40:01.886Z,12.93
2022-09-26T06:42:28.327Z,14.00
2022-09-26T06:44:55.864Z,13.27
2022-09-26T06:47:23.295Z,11.07
2022-09-26T06:49:50.440Z,12.60
2022-09-26T06:52:16.934Z,14.57
2022-09-26T06:54:43.370Z,11.65
2022-09-26T06:57:15.053Z,12.80
2022-09-26T06:59:41.977Z,13.20
2022-09-26T07:02:09.010Z,17.55
2022-09-26T07:04:35.762Z,14.30
2022-09-26T07:07:02.450Z,10.15
2022-09-26T07:09:28.940Z,10.98
2022-09-26T07:14:42.550Z,13.98
2022-09-26T07:17:15.414Z,14.45
2022-09-26T07:19:42.476Z,10.85
2022-09-26T07:22:09.486Z,8.90
2022-09-26T07:24:36.244Z,11.05
2022-09-26T07:27:03.038Z,9.02
2022-09-26T07:29:29.673Z,10.23
2022-09-26T07:31:56.177Z,12.45
2022-09-26T07:34:27.025Z,9.65
2022-09-26T07:36:54.102Z,10.52
2022-09-26T07:39:20.520Z,10.73
2022-09-26T07:41:49.713Z,12.32
2022-09-26T07:47:22.560Z,10.23
2022-09-26T07:50:07.435Z,8.35
2022-09-26T07:52:34.025Z,16.20
2022-09-26T07:55:00.505Z,11.07
2022-09-26T07:57:26.868Z,9.65
2022-09-26T07:59:54.190Z,9.68
2022-09-26T08:02:25.756Z,6.82
2022-09-26T08:04:57.635Z,11.60
2022-09-26T08:07:26.717Z,8.45
2022-09-26T08:09:54.043Z,8.77
2022-09-26T08:12:20.632Z,7.93
2022-09-26T08:14:49.119Z,7.32
2022-09-26T08:17:17.186Z,5.95
2022-09-26T08:19:43.921Z,8.95
2022-09-26T08:22:11.224Z,9.70
2022-09-26T08:24:38.931Z,11.55
2022-09-26T08:27:05.442Z,8.57
2022-09-26T08:29:32.245Z,8.57
2022-09-26T08:32:00.944Z,7.88
2022-09-26T08:34:27.706Z,7.63
2022-09-26T08:36:54.727Z,6.93
2022-09-26T08:39:21.912Z,7.32
2022-09-26T08:42:11.438Z,10.07
2022-09-26T08:45:42.097Z,5.68
2022-09-26T08:48:26.985Z,8.18
2022-09-26T08:51:12.002Z,7.15
2022-09-26T08:54:13.194Z,5.93
2022-09-26T08:56:45.768Z,8.50
2022-09-26T08:59:23.493Z,8.75
2022-09-26T09:01:52.457Z,9.05
2022-09-26T09:04:44.019Z,9.50
2022-09-26T09:07:22.214Z,7.15
2022-09-26T09:09:49.987Z,6.93
2022-09-26T09:12:40.546Z,9.98
2022-09-26T09:15:34.674Z,6.30
2022-09-26T09:18:32.802Z,5.07
2022-09-26T09:21:26.676Z,8.52
2022-09-26T09:23:59.034Z,7.07
2022-09-26T09:29:35.896Z,8.30
2022-09-26T09:32:04.544Z,4.82
2022-09-26T09:34:44.557Z,7.20
2022-09-26T09:37:16.135Z,3.60
2022-09-26T09:39:45.390Z,3.70
2022-09-26T09:42:25.441Z,2.78
2022-09-26T09:45:25.164Z,3.13
2022-09-26T09:47:51.800Z,5.05
2022-09-26T09:50:56.922Z,4.00
2022-09-26T09:54:05.485Z,6.05
2022-09-26T09:56:51.980Z,2.15
2022-09-26T09:59:53.904Z,4.43
2022-09-26T10:02:46.462Z,5.60
2022-09-26T10:05:43.039Z,2.13
2022-09-26T10:08:18.313Z,4.13
2022-09-26T10:11:11.075Z,3.05
2022-09-26T10:13:39.728Z,3.63
2022-09-26T10:16:07.872Z,6.15
2022-09-26T10:19:03.899Z,3.47
2022-09-26T10:24:04.740Z,4.95
2022-09-26T10:26:39.339Z,7.18
2022-09-26T10:29:25.038Z,5.00
2022-09-26T10:31:57.136Z,4.60
2022-09-26T10:34:27.966Z,3.75
2022-09-26T10:36:55.977Z,4.57
2022-09-26T10:39:48.586Z,3.47
2022-09-26T10:42:20.385Z,3.90
2022-09-26T10:44:50.726Z,3.67
2022-09-26T10:47:22.195Z,5.22
2022-09-26T10:49:51.330Z,4.50
2022-09-26T10:52:35.984Z,3.38
2022-09-26T10:55:07.829Z,5.28
2022-09-26T10:57:50.360Z,5.10
2022-09-26T11:00:43.120Z,5.60
2022-09-26T11:03:13.866Z,7.20
2022-09-26T11:05:59.201Z,4.13
2022-09-26T11:08:30.379Z,4.78
2022-09-26T11:11:00.669Z,4.65
2022-09-26T11:13:32.263Z,6.63
2022-09-26T11:16:10.725Z,3.63
2022-09-26T11:18:59.382Z,5.75
2022-09-26T11:21:55.945Z,4.65
2022-09-26T11:24:54.806Z,5.10
2022-09-26T11:27:24.589Z,5.07
2022-09-26T11:30:02.013Z,7.50
2022-09-26T11:32:32.159Z,8.90
2022-09-26T11:35:03.399Z,6.82
2022-09-26T11:37:50.865Z,6.38
2022-09-26T11:40:38.858Z,5.43
2022-09-26T11:43:45.217Z,7.30
2022-09-26T11:46:21.152Z,9.10
2022-09-26T11:49:00.988Z,5.40
2022-09-26T11:51:40.203Z,4.97
2022-09-26T11:54:45.651Z,6.10
2022-09-26T11:57:27.308Z,8.68
2022-09-26T12:00:26.566Z,5.72
2022-09-26T12:03:26.069Z,7.25
2022-09-26T12:06:08.885Z,4.68
2022-09-26T12:09:14.577Z,6.82
2022-09-26T12:12:09.595Z,6.53
2022-09-26T12:14:58.105Z,10.15
2022-09-26T12:17:40.974Z,7.43
2022-09-26T12:20:24.998Z,5.60
2022-09-26T12:23:07.330Z,6.53
2022-09-26T12:26:05.054Z,6.80
2022-09-26T12:28:56.517Z,7.78
2022-09-26T12:31:32.594Z,4.53
2022-09-26T12:34:28.310Z,3.35
2022-09-26T12:37:14.213Z,3.60
2022-09-26T12:39:57.288Z,6.55
2022-09-26T12:42:55.797Z,6.70
2022-09-26T12:45:57.650Z,7.18
2022-09-26T12:48:39.404Z,3.13
2022-09-26T12:51:43.190Z,4.75
2022-09-26T12:54:38.634Z,3.83
2022-09-26T12:57:24.259Z,5.18
2022-09-26T13:00:03.701Z,5.28
2022-09-26T13:02:42.347Z,7.60
2022-09-26T13:05:50.735Z,2.53
2022-09-26T13:08:41.570Z,3.72
2022-09-26T13:11:45.785Z,3.33
2022-09-26T13:14:18.403Z,4.85
2022-09-26T13:17:10.229Z,3.25
2022-09-26T13:19:48.140Z,3.80
2022-09-26T13:22:27.615Z,3.83
2022-09-26T13:24:56.898Z,3.70
2022-09-26T13:27:36.061Z,5.72
2022-09-26T13:30:08.102Z,4.93
2022-09-26T13:32:50.006Z,3.58
2022-09-26T13:35:23.258Z,4.53
2022-09-26T13:38:08.354Z,5.57
2022-09-26T13:40:39.281Z,3.35
2022-09-26T13:43:14.842Z,3.25
2022-09-26T13:45:58.493Z,3.00
2022-09-26T13:49:00.899Z,5.47
2022-09-26T13:51:52.469Z,3.70
2022-09-26T13:54:27.466Z,3.15
2022-09-26T13:56:54.427Z,5.35
2022-09-26T13:59:32.229Z,5.63
2022-09-26T14:02:18.068Z,6.53
2022-09-26T14:04:50.064Z,3.70
2022-09-26T14:07:42.490Z,4.53
2022-09-26T14:10:19.180Z,4.57
2022-09-26T14:13:05.852Z,6.18
2022-09-26T14:15:48.959Z,5.03
2022-09-26T14:18:43.509Z,4.45
2022-09-26T14:21:10.587Z,5.38
2022-09-26T14:23:40.623Z,7.32
2022-09-26T14:26:19.366Z,6.80
2022-09-26T14:28:52.915Z,8.45
2022-09-26T14:31:25.214Z,7.00
2022-09-26T14:34:10.658Z,12.07
2022-09-26T14:36:37.569Z,22.40
2022-09-26T14:39:05.727Z,8.15
2022-09-26T14:41:34.748Z,12.95
2022-09-26T14:44:04.677Z,8.35
2022-09-26T14:46:35.512Z,6.78
2022-09-26T14:49:06.493Z,3.22
2022-09-26T14:51:37.074Z,6.53
2022-09-26T14:54:08.845Z,7.55
2022-09-26T14:56:43.145Z,3.88
2022-09-26T14:59:24.995Z,5.43
2022-09-26T15:01:53.220Z,6.00
2022-09-26T15:04:25.861Z,5.35
2022-09-26T15:07:02.970Z,3.92
2022-09-26T15:09:52.120Z,3.55
2022-09-26T15:12:26.794Z,3.00
2022-09-26T15:15:04.960Z,7.18
2022-09-26T15:17:39.673Z,3.17
2022-09-26T15:20:13.730Z,5.60
2022-09-26T15:22:42.504Z,5.68
2022-09-26T15:25:19.246Z,5.70
2022-09-26T15:27:49.276Z,4.57
2022-09-26T15:30:24.215Z,5.60
2022-09-26T15:32:57.092Z,5.78
2022-09-26T15:35:24.225Z,5.72
2022-09-26T15:37:50.691Z,3.10
2022-09-26T15:40:23.152Z,7.85
2022-09-26T15:43:01.482Z,4.63
2022-09-26T15:45:33.780Z,6.05
2022-09-26T15:48:18.908Z,5.20
2022-09-26T15:51:26.345Z,3.60
2022-09-26T15:53:57.870Z,4.20
2022-09-26T15:56:42.595Z,8.52
2022-09-26T15:59:29.208Z,4.27
2022-09-26T16:01:56.480Z,2.90
2022-09-26T16:04:27.151Z,6.15
2022-09-26T16:07:05.315Z,6.38
2022-09-26T16:09:32.382Z,7.82
2022-09-26T16:12:02.558Z,6.40
2022-09-26T16:14:46.767Z,5.22
2022-09-26T16:17:32.954Z,8.63
2022-09-26T16:20:23.608Z,4.57
2022-09-26T16:23:04.765Z,2.90
2022-09-26T16:25:52.780Z,3.85
2022-09-26T16:28:42.425Z,6.45
2022-09-26T16:31:17.893Z,3.53
2022-09-26T16:33:50.882Z,6.22
2022-09-26T16:36:26.663Z,4.13
2022-09-26T16:38:56.571Z,8.32
2022-09-26T16:41:56.122Z,5.78
2022-09-26T16:44:28.743Z,6.90
2022-09-26T16:47:05.429Z,3.45
2022-09-26T16:49:47.320Z,7.22
2022-09-26T16:52:32.736Z,5.20
2022-09-26T16:55:01.680Z,7.30
2022-09-26T16:57:38.956Z,5.68
2022-09-26T17:00:35.636Z,4.75
2022-09-26T17:03:03.142Z,3.60
2022-09-26T17:05:29.956Z,12.32
2022-09-26T17:07:56.439Z,3.45
2022-09-26T17:10:25.178Z,4.38
2022-09-26T17:12:52.928Z,4.95
2022-09-26T17:15:28.220Z,6.13
2022-09-26T17:17:56.929Z,7.28
2022-09-26T17:20:24.139Z,8.52
2022-09-26T17:22:51.110Z,3.33
2022-09-26T17:25:18.699Z,5.28
2022-09-26T17:27:50.297Z,5.60
2022-09-26T17:30:19.040Z,12.48
2022-09-26T17:32:49.743Z,9.38
2022-09-26T17:35:22.164Z,5.30
2022-09-26T17:37:48.726Z,9.65
2022-09-26T17:40:27.250Z,5.97
2022-09-26T17:42:56.533Z,5.75
2022-09-26T17:45:32.045Z,6.80
2022-09-26T17:48:02.035Z,3.45
2022-09-26T17:50:31.274Z,5.68
2022-09-26T17:53:01.003Z,5.70
2022-09-26T17:55:31.291Z,4.18
2022-09-26T17:57:58.343Z,5.07
2022-09-26T18:00:25.531Z,4.57
2022-09-26T18:02:57.220Z,6.10
2022-09-26T18:05:27.753Z,4.93
2022-09-26T18:08:16.662Z,9.07
2022-09-26T18:10:51.668Z,9.68
2022-09-26T18:13:22.604Z,8.18
2022-09-26T18:15:49.665Z,17.33
2022-09-26T18:18:18.530Z,9.02
2022-09-26T18:20:48.804Z,8.15
2022-09-26T18:23:27.038Z,10.60
2022-09-26T18:25:55.855Z,6.88
2022-09-26T18:28:23.605Z,3.97
2022-09-26T18:30:57.841Z,5.80
2022-09-26T18:33:27.689Z,5.13
2022-09-26T18:35:54.774Z,5.88
2022-09-26T18:38:22.173Z,4.15
2022-09-26T18:40:58.565Z,4.97
2022-09-26T18:43:29.340Z,6.05
2022-09-26T18:45:57.515Z,5.80
2022-09-26T18:48:32.825Z,7.75
2022-09-26T18:53:30.287Z,4.45
2022-09-26T18:56:15.373Z,6.20
2022-09-26T18:58:41.843Z,9.40
2022-09-26T19:01:23.165Z,9.70
2022-09-26T19:03:49.915Z,12.07
2022-09-26T19:06:23.104Z,10.30
2022-09-26T19:09:01.734Z,8.25
2022-09-26T19:11:31.796Z,6.90
2022-09-26T19:14:02.615Z,4.38
2022-09-26T19:16:29.033Z,4.45
2022-09-26T19:18:55.525Z,4.93
2022-09-26T19:21:39.301Z,5.15
2022-09-26T19:24:20.660Z,4.90
2022-09-26T19:26:54.247Z,6.60
2022-09-26T19:29:36.738Z,5.35
2022-09-26T19:32:05.876Z,4.35
2022-09-26T19:34:33.170Z,6.43
2022-09-26T19:37:02.234Z,6.00
2022-09-26T19:39:28.845Z,5.18
2022-09-26T19:41:55.383Z,5.50
2022-09-26T19:44:22.919Z,7.18
2022-09-26T19:46:49.328Z,3.75
2022-09-26T19:49:19.773Z,4.72
2022-09-26T19:51:49.458Z,8.73
2022-09-26T19:54:18.500Z,6.65
2022-09-26T19:56:46.509Z,3.95
2022-09-26T19:59:17.349Z,3.33
2022-09-26T20:01:46.426Z,5.45
2022-09-26T20:04:16.052Z,4.13
2022-09-26T20:06:43.175Z,4.90
2022-09-26T20:09:15.919Z,3.85
2022-09-26T20:11:42.981Z,4.78
2022-09-26T20:14:24.981Z,3.58
2022-09-26T20:16:58.454Z,7.65
2022-09-26T20:19:31.198Z,2.40
2022-09-26T20:22:01.731Z,2.58
2022-09-26T20:24:30.922Z,3.10
2022-09-26T20:27:00.250Z,3.38
2022-09-26T20:29:26.995Z,7.85
2022-09-26T20:31:53.968Z,4.10
2022-09-26T20:34:20.528Z,2.30
2022-09-26T20:36:51.573Z,2.65
2022-09-26T20:39:26.212Z,2.28
2022-09-26T20:41:53.092Z,2.67
2022-09-26T20:44:27.893Z,4.72
2022-09-26T20:46:58.368Z,2.83
2022-09-26T20:49:37.691Z,1.55
2022-09-26T20:52:08.678Z,2.55
2022-09-26T20:54:35.409Z,3.05
2022-09-26T20:57:01.961Z,1.92
2022-09-26T20:59:29.126Z,2.13
2022-09-26T21:01:57.538Z,3.42
2022-09-26T21:04:32.375Z,3.22
2022-09-26T21:06:58.781Z,2.75
2022-09-26T21:09:25.375Z,2.85
2022-09-26T21:11:51.792Z,3.88
2022-09-26T21:14:18.948Z,1.88
2022-09-26T21:16:48.268Z,2.38
2022-09-26T21:19:20.872Z,2.67
2022-09-26T21:21:47.432Z,4.03
2022-09-26T21:24:22.736Z,2.83
2022-09-26T21:26:51.340Z,1.85
2022-09-26T21:29:18.303Z,2.95
2022-09-26T21:31:53.515Z,1.98
2022-09-26T21:34:26.591Z,2.67
2022-09-26T21:36:56.160Z,2.30
2022-09-26T21:39:24.994Z,1.60
2022-09-26T21:41:55.740Z,3.42
2022-09-26T21:44:28.171Z,2.47
2022-09-26T21:46:54.572Z,2.63
2022-09-26T21:49:24.376Z,4.80
2022-09-26T21:51:55.947Z,3.90
2022-09-26T21:54:29.221Z,3.15
2022-09-26T21:57:02.338Z,4.40
2022-09-26T21:59:30.082Z,5.68
2022-09-26T22:01:56.622Z,3.20
2022-09-26T22:04:23.813Z,1.65
2022-09-26T22:06:50.276Z,6.18
2022-09-26T22:09:16.809Z,4.50
2022-09-26T22:11:43.376Z,4.28
2022-09-26T22:14:10.135Z,5.43
2022-09-26T22:16:36.654Z,4.32
2022-09-26T22:19:05.030Z,3.70
2022-09-26T22:21:31.725Z,5.95
2022-09-26T22:23:58.187Z,4.38
2022-09-26T22:26:24.766Z,3.40
2022-09-26T22:28:51.211Z,7.60
2022-09-26T22:31:18.390Z,3.83
2022-09-26T22:33:45.054Z,4.82
2022-09-26T22:36:12.095Z,3.45
2022-09-26T22:38:39.210Z,4.50
2022-09-26T22:41:06.779Z,5.22
2022-09-26T22:43:35.005Z,2.17
2022-09-26T22:46:09.841Z,6.15
2022-09-26T22:48:39.295Z,5.55
2022-09-26T22:51:06.711Z,6.57
2022-09-26T22:53:36.306Z,6.65
2022-09-26T22:56:05.012Z,6.50
2022-09-26T22:58:36.517Z,4.88
2022-09-26T23:01:04.705Z,5.97
2022-09-26T23:03:32.915Z,8.48
2022-09-26T23:06:00.071Z,6.40
2022-09-26T23:08:27.464Z,7.40
2022-09-26T23:10:56.512Z,5.45
2022-09-26T23:13:25.453Z,7.75
2022-09-26T23:15:52.257Z,11.85
2022-09-26T23:18:19.147Z,7.95
2022-09-26T23:20:45.830Z,6.13
2022-09-26T23:23:14.241Z,9.07
2022-09-26T23:25:50.370Z,6.90
2022-09-26T23:28:17.863Z,10.23
2022-09-26T23:30:44.447Z,10.77
2022-09-26T23:33:11.171Z,8.25
2022-09-26T23:35:37.764Z,7.68
2022-09-26T23:38:05.436Z,11.63
2022-09-26T23:40:32.573Z,11.57
2022-09-26T23:42:59.093Z,12.55
2022-09-26T23:45:27.013Z,12.77
2022-09-26T23:47:53.891Z,8.35
2022-09-26T23:50:20.734Z,9.73
2022-09-26T23:52:47.459Z,7.35
2022-09-26T23:55:13.969Z,8.98
2022-09-26T23:57:40.748Z,9.88
